createdAt,value
2023-07-25T03:15:51.546Z,98996.25
2023-07-25T03:18:54.340Z,98996.25
2023-07-25T03:21:56.638Z,98981.66
2023-07-25T03:24:59.189Z,98993.16
2023-07-25T03:28:01.442Z,98996.69
2023-07-25T03:31:05.090Z,99009.81
2023-07-25T03:34:08.261Z,99021.22
2023-07-25T03:37:11.017Z,99036.28
2023-07-25T03:40:13.338Z,99050.25
2023-07-25T03:43:16.048Z,99044.94
2023-07-25T03:46:18.342Z,99041.41
2023-07-25T03:49:20.849Z,99036.06
2023-07-25T03:52:23.091Z,99000.66
2023-07-25T03:55:25.597Z,99010.84
2023-07-25T03:58:27.737Z,99002.00
2023-07-25T04:01:31.763Z,99000.22
2023-07-25T04:04:34.822Z,99006.38
2023-07-25T04:07:37.076Z,99004.72
2023-07-25T04:10:39.757Z,99026.97
2023-07-25T04:13:42.311Z,99022.41
2023-07-25T04:16:44.763Z,99023.41
2023-07-25T04:19:47.102Z,99002.13
2023-07-25T04:22:49.679Z,98991.50
2023-07-25T04:25:51.926Z,99012.53
2023-07-25T04:28:54.449Z,98997.31
2023-07-25T04:31:57.266Z,99007.59
2023-07-25T04:34:59.939Z,99008.47
2023-07-25T04:38:02.166Z,99001.81
2023-07-25T04:41:04.888Z,99008.31
2023-07-25T04:44:07.813Z,99019.00
2023-07-25T04:47:10.414Z,99011.44
2023-07-25T04:50:12.686Z,99022.12
2023-07-25T04:53:15.147Z,99015.59
2023-07-25T04:56:17.389Z,99028.25
2023-07-25T04:59:20.376Z,99016.47
2023-07-25T05:02:23.529Z,99009.28
2023-07-25T05:05:26.014Z,98998.62
2023-07-25T05:08:28.615Z,99006.53
2023-07-25T05:11:31.288Z,98983.53
2023-07-25T05:14:33.690Z,98976.50
2023-07-25T05:17:36.220Z,98952.50
2023-07-25T05:20:39.006Z,98973.09
2023-07-25T05:23:41.756Z,98959.66
2023-07-25T05:26:43.938Z,98966.09
2023-07-25T05:29:46.367Z,98948.91
2023-07-25T05:32:50.599Z,98964.34
2023-07-25T05:36:03.176Z,98957.28
2023-07-25T05:39:05.398Z,98950.63
2023-07-25T05:42:08.180Z,98948.22
2023-07-25T05:45:10.955Z,98951.00
2023-07-25T05:48:13.465Z,98939.25
2023-07-25T05:51:15.786Z,98954.31
2023-07-25T05:54:18.775Z,98963.03
2023-07-25T05:57:21.259Z,98983.06
2023-07-25T06:00:23.827Z,98984.03
2023-07-25T06:03:26.694Z,98983.56
2023-07-25T06:06:29.013Z,98987.31
2023-07-25T06:09:31.588Z,98990.47
2023-07-25T06:12:33.986Z,98980.63
2023-07-25T06:15:36.765Z,98963.16
2023-07-25T06:18:39.701Z,98961.94
2023-07-25T06:21:43.246Z,98959.06
2023-07-25T06:24:45.692Z,98960.69
2023-07-25T06:27:48.236Z,98964.59
2023-07-25T06:30:50.484Z,98952.59
2023-07-25T06:33:53.009Z,98949.84
2023-07-25T06:36:56.966Z,98948.16
2023-07-25T06:40:01.231Z,98940.28
2023-07-25T06:43:03.466Z,98934.47
2023-07-25T06:46:06.353Z,98922.38
2023-07-25T06:49:08.673Z,98919.75
2023-07-25T06:52:11.096Z,98921.59
2023-07-25T06:55:13.883Z,98921.22
2023-07-25T06:58:16.399Z,98907.84
2023-07-25T07:01:18.906Z,98890.94
2023-07-25T07:04:21.414Z,98890.34
2023-07-25T07:07:23.602Z,98882.91
2023-07-25T07:10:26.179Z,98883.00
2023-07-25T07:13:28.901Z,98870.38
2023-07-25T07:16:31.430Z,98859.66
2023-07-25T07:19:33.624Z,98849.63
2023-07-25T07:22:36.503Z,98850.00
2023-07-25T07:25:39.617Z,98854.66
2023-07-25T07:28:42.858Z,98852.69
2023-07-25T07:31:45.209Z,98847.56
2023-07-25T07:34:47.673Z,98838.97
2023-07-25T07:37:49.898Z,98837.44
2023-07-25T07:40:52.497Z,98838.59
2023-07-25T07:43:55.591Z,98828.38
2023-07-25T07:46:58.100Z,98834.06
2023-07-25T07:50:03.123Z,98846.16
2023-07-25T07:53:09.859Z,98852.50
2023-07-25T07:56:13.658Z,98847.72
2023-07-25T07:59:16.364Z,98841.19
2023-07-25T08:02:19.474Z,98837.66
2023-07-25T08:05:22.239Z,98843.75
2023-07-25T08:08:24.594Z,98851.81
2023-07-25T08:11:27.095Z,98848.06
2023-07-25T08:14:29.454Z,98848.19
2023-07-25T08:17:32.166Z,98854.31
2023-07-25T08:20:34.940Z,98854.19
2023-07-25T08:23:37.373Z,98846.06
2023-07-25T08:26:39.573Z,98840.66
2023-07-25T08:29:46.705Z,98829.25
2023-07-25T08:32:49.174Z,98811.78
2023-07-25T08:35:52.997Z,98814.78
2023-07-25T08:38:55.304Z,98816.91
2023-07-25T08:41:59.541Z,98808.97
2023-07-25T08:45:06.799Z,98821.72
2023-07-25T08:48:13.571Z,98822.91
2023-07-25T08:51:22.787Z,98833.03
2023-07-25T08:54:32.661Z,98832.72
2023-07-25T08:57:35.468Z,98831.22
2023-07-25T09:00:38.008Z,98851.84
2023-07-25T09:03:41.242Z,98880.16
2023-07-25T09:06:43.954Z,98880.00
2023-07-25T09:09:46.231Z,98882.06
2023-07-25T09:12:48.728Z,98936.75
2023-07-25T09:15:50.952Z,98997.00
2023-07-25T09:18:54.280Z,99126.22
2023-07-25T09:21:59.196Z,99196.41
2023-07-25T09:25:01.858Z,99174.50
2023-07-25T09:28:07.121Z,99146.63
2023-07-25T09:31:09.600Z,99137.19
2023-07-25T09:34:17.516Z,99131.94
2023-07-25T09:37:19.994Z,99123.97
2023-07-25T09:40:22.543Z,99105.69
2023-07-25T09:43:27.629Z,99103.09
2023-07-25T09:46:29.897Z,99100.56
2023-07-25T09:49:32.886Z,99102.47
2023-07-25T09:52:43.438Z,99089.22
2023-07-25T09:55:46.708Z,99059.31
2023-07-25T09:59:06.714Z,99017.84
2023-07-25T10:02:11.571Z,98999.28
2023-07-25T10:05:14.753Z,98975.38
2023-07-25T10:08:22.317Z,98993.81
2023-07-25T10:11:25.748Z,98992.72
2023-07-25T10:14:28.022Z,99005.09
2023-07-25T10:17:30.561Z,99011.56
2023-07-25T10:20:32.918Z,99040.66
2023-07-25T10:23:36.245Z,99037.03
2023-07-25T10:26:53.643Z,99036.28
2023-07-25T10:30:01.918Z,99043.25
2023-07-25T10:33:04.960Z,99069.72
2023-07-25T10:36:21.419Z,99061.44
2023-07-25T10:39:27.254Z,99023.34
2023-07-25T10:42:51.858Z,99007.34
2023-07-25T10:46:02.613Z,98991.00
2023-07-25T10:49:16.565Z,98976.56
2023-07-25T10:56:12.915Z,98959.50
2023-07-25T10:59:15.336Z,98942.50
2023-07-25T11:02:33.121Z,98964.37
2023-07-25T11:05:35.746Z,98935.19
2023-07-25T11:08:40.902Z,98971.84
2023-07-25T11:11:48.213Z,98969.44
2023-07-25T11:14:51.792Z,98948.38
2023-07-25T11:17:54.361Z,98912.34
2023-07-25T11:21:05.137Z,98882.16
2023-07-25T11:24:08.849Z,98866.37
2023-07-25T11:27:12.405Z,98856.91
2023-07-25T11:30:19.215Z,98855.75
2023-07-25T11:33:21.845Z,98867.13
2023-07-25T11:36:24.032Z,98849.59
2023-07-25T11:39:26.800Z,98836.34
2023-07-25T11:42:29.280Z,98846.44
2023-07-25T11:45:31.901Z,98845.53
2023-07-25T11:48:34.564Z,98834.13
2023-07-25T11:51:38.516Z,98817.09
2023-07-25T11:54:41.282Z,98820.03
2023-07-25T11:57:44.017Z,98845.91
2023-07-25T12:00:52.445Z,98836.69
2023-07-25T12:03:54.962Z,98837.00
2023-07-25T12:07:00.474Z,98859.03
2023-07-25T12:10:03.093Z,98861.19
2023-07-25T12:13:09.566Z,98857.37
2023-07-25T12:16:24.404Z,98874.31
2023-07-25T12:19:32.185Z,98867.63
2023-07-25T12:22:34.682Z,98872.97
2023-07-25T12:25:37.313Z,98880.75
2023-07-25T12:28:44.636Z,98870.84
2023-07-25T12:31:46.857Z,98872.28
2023-07-25T12:34:50.129Z,98876.28
2023-07-25T12:37:52.350Z,98876.09
2023-07-25T12:40:55.045Z,98891.06
2023-07-25T12:43:57.894Z,98873.78
2023-07-25T12:47:01.528Z,98873.19
2023-07-25T12:50:03.928Z,98858.19
2023-07-25T12:53:07.401Z,98823.19
2023-07-25T12:56:09.735Z,98784.72
2023-07-25T12:59:12.191Z,98753.06
2023-07-25T13:02:14.397Z,98743.69
2023-07-25T13:05:18.038Z,98705.56
2023-07-25T13:08:21.444Z,98726.41
2023-07-25T13:11:23.956Z,98717.09
2023-07-25T13:14:26.273Z,98707.97
2023-07-25T13:17:28.815Z,98742.66
2023-07-25T13:20:31.136Z,98765.50
2023-07-25T13:23:33.588Z,98797.59
2023-07-25T13:26:35.828Z,98763.19
2023-07-25T13:29:38.415Z,98796.25
2023-07-25T13:32:41.369Z,98790.00
2023-07-25T13:35:44.001Z,98807.19
2023-07-25T13:38:46.214Z,98809.16
2023-07-25T13:41:48.779Z,98831.69
2023-07-25T13:44:51.507Z,98822.31
2023-07-25T13:47:53.976Z,98825.69
2023-07-25T13:50:56.218Z,98842.72
2023-07-25T13:53:58.833Z,98856.34
2023-07-25T13:57:01.717Z,98849.50
2023-07-25T14:00:04.796Z,98846.62
2023-07-25T14:03:07.176Z,98829.69
2023-07-25T14:06:09.926Z,98833.22
2023-07-25T14:09:12.181Z,98829.00
2023-07-25T14:12:14.741Z,98827.75
2023-07-25T14:15:17.496Z,98830.91
2023-07-25T14:18:20.166Z,98819.75
2023-07-25T14:21:22.369Z,98808.09
2023-07-25T14:24:25.421Z,98789.44
2023-07-25T14:27:27.654Z,98747.47
2023-07-25T14:30:32.760Z,98753.63
2023-07-25T14:33:35.015Z,98790.94
2023-07-25T14:36:37.534Z,98790.22
2023-07-25T14:39:40.607Z,98800.34
2023-07-25T14:42:43.933Z,98780.34
2023-07-25T14:45:46.341Z,98729.91
2023-07-25T14:48:48.915Z,98604.59
2023-07-25T14:51:51.206Z,98581.47
2023-07-25T14:54:53.828Z,98601.09
2023-07-25T14:57:56.017Z,98640.00
2023-07-25T15:00:58.598Z,98614.41
2023-07-25T15:04:00.803Z,98602.78
2023-07-25T15:07:03.316Z,98635.66
2023-07-25T15:10:06.104Z,98651.16
